Time;durP1;ratioP1;P1;durP2;ratioP2;P2;SDS_P1;SDS_P2;PMS_P1;PMS_P2;Temp;Humidity;BMP_temperature;BMP_pressure;BME280_temperature;BME280_humidity;BME280_pressure;Samples;Min_cycle;Max_cycle;Signal;HPM_P1;HPM_P2
2021/09/25 00:02:04;;;;;;;;;;;11.30;99.90;;;;;;4976271;28;20021;-74
2021/09/25 00:04:36;;;;;;;;;;;11.30;99.90;;;;;;4993511;28;20307;-74
2021/09/25 00:07:08;;;;;;;;;;;11.30;99.90;;;;;;4993713;28;20024;-73
2021/09/25 00:09:40;;;;;;;;;;;11.40;99.90;;;;;;4993473;28;20020;-74
2021/09/25 00:12:13;;;;;;;;;;;11.40;99.90;;;;;;4993229;28;19948;-73
2021/09/25 00:14:45;;;;;;;;;;;11.40;99.90;;;;;;4976585;28;19926;-73
2021/09/25 00:17:12;;;;;;;;;;;11.40;99.90;;;;;;4976375;28;20356;-74
2021/09/25 00:19:44;;;;;;;;;;;11.40;99.90;;;;;;4992365;28;20282;-74
2021/09/25 00:22:16;;;;;;;;;;;11.30;99.90;;;;;;4976803;28;19930;-74
2021/09/25 00:24:43;;;;;;;;;;;11.20;99.90;;;;;;4976023;28;20028;-74
2021/09/25 00:27:10;;;;;;;;;;;11.20;99.90;;;;;;4976396;28;20029;-74
2021/09/25 00:29:41;;;;;;;;;;;11.20;99.90;;;;;;4976752;28;19926;-73
2021/09/25 00:32:13;;;;;;;;;;;11.20;99.90;;;;;;4961337;28;19926;-75
2021/09/25 00:34:44;;;;;;;;;;;11.10;99.90;;;;;;4960495;28;19926;-74
2021/09/25 00:37:16;;;;;;;;;;;11.10;99.90;;;;;;4976375;28;19930;-73
2021/09/25 00:39:43;;;;;;;;;;;11.00;99.90;;;;;;4976490;28;19926;-74
2021/09/25 00:42:14;;;;;;;;;;;11.00;99.90;;;;;;4976492;28;20281;-74
2021/09/25 00:44:46;;;;;;;;;;;11.00;99.90;;;;;;4960644;28;19936;-74
2021/09/25 00:47:13;;;;;;;;;;;10.90;99.90;;;;;;4993684;28;20024;-73
2021/09/25 00:49:40;;;;;;;;;;;10.90;99.90;;;;;;4999877;28;20020;-74
2021/09/25 00:52:07;;;;;;;;;;;10.90;99.90;;;;;;4993823;28;19929;-73
2021/09/25 00:54:38;;;;;;;;;;;10.90;99.90;;;;;;5012704;28;19972;-73
2021/09/25 00:57:06;;;;;;;;;;;10.80;99.90;;;;;;4995943;28;20016;-73
2021/09/25 00:59:33;;;;;;;;;;;10.80;99.90;;;;;;4995561;28;20016;-73
2021/09/25 01:02:05;;;;;;;;;;;10.80;99.90;;;;;;4996349;28;20032;-73
2021/09/25 01:04:32;;;;;;;;;;;10.80;99.90;;;;;;4994725;28;19926;-74
2021/09/25 01:06:59;;;;;;;;;;;10.80;99.90;;;;;;4995163;28;20363;-74
2021/09/25 01:09:26;;;;;;;;;;;10.80;99.90;;;;;;5011247;28;20019;-73
2021/09/25 01:11:57;;;;;;;;;;;10.80;99.90;;;;;;5012589;28;19932;-74
2021/09/25 01:14:24;;;;;;;;;;;10.70;99.90;;;;;;5011288;28;19925;-74
2021/09/25 01:16:51;;;;;;;;;;;10.70;99.90;;;;;;5011583;28;20291;-74
2021/09/25 01:19:22;;;;;;;;;;;10.70;99.90;;;;;;4994868;28;19931;-73
2021/09/25 01:21:54;;;;;;;;;;;10.60;99.90;;;;;;5012457;28;19926;-74
2021/09/25 01:24:20;;;;;;;;;;;10.60;99.90;;;;;;5011033;28;20366;-73
2021/09/25 01:26:52;;;;;;;;;;;10.60;99.90;;;;;;5011634;28;19932;-74
2021/09/25 01:29:24;;;;;;;;;;;10.60;99.90;;;;;;4995386;28;20402;-73
2021/09/25 01:31:56;;;;;;;;;;;10.60;99.90;;;;;;4995266;28;19932;-73
2021/09/25 01:34:28;;;;;;;;;;;10.60;99.90;;;;;;4995063;28;20363;-73
2021/09/25 01:37:00;;;;;;;;;;;10.50;99.90;;;;;;4994832;28;20020;-73
2021/09/25 01:39:32;;;;;;;;;;;10.60;99.90;;;;;;4994484;28;20028;-73
2021/09/25 01:42:04;;;;;;;;;;;10.60;99.90;;;;;;4994434;28;19932;-73
2021/09/25 01:44:35;;;;;;;;;;;10.50;99.90;;;;;;4994251;28;20391;-73
2021/09/25 01:47:07;;;;;;;;;;;10.50;99.90;;;;;;4995371;28;19935;-73
2021/09/25 01:49:34;;;;;;;;;;;10.50;99.90;;;;;;5010634;28;19925;-73
2021/09/25 01:52:01;;;;;;;;;;;10.40;99.90;;;;;;4994502;28;20392;-73
2021/09/25 01:54:27;;;;;;;;;;;10.40;99.90;;;;;;5010835;28;20462;-73
2021/09/25 01:56:59;;;;;;;;;;;10.40;99.90;;;;;;4994907;28;19932;-73
2021/09/25 01:59:26;;;;;;;;;;;10.30;99.90;;;;;;4994616;28;19926;-73
2021/09/25 02:01:57;;;;;;;;;;;10.30;99.90;;;;;;4995645;28;19936;-73
2021/09/25 02:04:29;;;;;;;;;;;10.30;99.90;;;;;;4994376;28;20430;-74
2021/09/25 02:07:01;;;;;;;;;;;10.30;99.90;;;;;;4995760;28;20363;-73
2021/09/25 02:09:32;;;;;;;;;;;10.30;99.90;;;;;;5012151;28;20299;-73
2021/09/25 02:12:04;;;;;;;;;;;10.20;99.90;;;;;;4995531;28;19932;-73
2021/09/25 02:14:36;;;;;;;;;;;10.20;99.90;;;;;;5010944;28;19968;-73
2021/09/25 02:17:08;;;;;;;;;;;10.20;99.90;;;;;;5011093;28;20015;-73
2021/09/25 02:19:40;;;;;;;;;;;10.20;99.90;;;;;;5012229;28;19956;-73
2021/09/25 02:22:07;;;;;;;;;;;10.20;99.90;;;;;;5012038;28;20024;-73
2021/09/25 02:24:34;;;;;;;;;;;10.20;99.90;;;;;;4994276;28;20352;-73
2021/09/25 02:27:05;;;;;;;;;;;10.20;99.90;;;;;;4995333;28;19984;-73
2021/09/25 02:29:37;;;;;;;;;;;10.20;99.90;;;;;;5010886;28;19977;-73
2021/09/25 02:32:04;;;;;;;;;;;10.20;99.90;;;;;;5012099;28;19932;-73
2021/09/25 02:34:36;;;;;;;;;;;10.20;99.90;;;;;;5011720;28;19967;-73
2021/09/25 02:37:08;;;;;;;;;;;10.10;99.90;;;;;;4994153;28;20024;-73
2021/09/25 02:39:34;;;;;;;;;;;10.10;99.90;;;;;;4994513;28;20012;-73
2021/09/25 02:42:06;;;;;;;;;;;10.10;99.90;;;;;;4994548;28;19934;-73
2021/09/25 02:44:38;;;;;;;;;;;10.10;99.90;;;;;;4995020;28;20027;-73
2021/09/25 02:47:09;;;;;;;;;;;10.00;99.90;;;;;;5010548;28;20024;-73
2021/09/25 02:49:41;;;;;;;;;;;10.00;99.90;;;;;;5011902;28;20016;-73
2021/09/25 02:52:13;;;;;;;;;;;10.00;99.90;;;;;;5010768;28;19926;-73
2021/09/25 02:54:45;;;;;;;;;;;9.90;99.90;;;;;;4995050;28;20012;-73
2021/09/25 02:57:11;;;;;;;;;;;10.00;99.90;;;;;;5012026;28;19925;-72
2021/09/25 02:59:38;;;;;;;;;;;9.90;99.90;;;;;;5010524;28;19976;-72
2021/09/25 03:02:05;;;;;;;;;;;9.90;99.90;;;;;;5010651;28;20016;-73
2021/09/25 03:04:36;;;;;;;;;;;9.80;99.90;;;;;;5010374;28;20037;-73
2021/09/25 03:07:03;;;;;;;;;;;9.80;99.90;;;;;;5010565;28;19960;-73
2021/09/25 03:09:35;;;;;;;;;;;9.80;99.90;;;;;;5011907;28;19976;-74
2021/09/25 03:12:08;;;;;;;;;;;9.70;99.90;;;;;;5010488;28;19949;-73
2021/09/25 03:14:40;;;;;;;;;;;9.70;99.90;;;;;;4994550;28;20426;-73
2021/09/25 03:17:07;;;;;;;;;;;9.60;99.90;;;;;;5013464;28;19960;-73
2021/09/25 03:19:33;;;;;;;;;;;9.60;99.90;;;;;;5014356;28;20213;-73
2021/09/25 03:22:05;;;;;;;;;;;9.60;99.90;;;;;;5015274;28;20400;-73
2021/09/25 03:24:37;;;;;;;;;;;9.50;99.90;;;;;;5014786;28;19964;-73
2021/09/25 03:27:08;;;;;;;;;;;9.50;99.90;;;;;;4997622;28;20393;-73
2021/09/25 03:29:40;;;;;;;;;;;9.50;99.90;;;;;;5013945;28;20028;-75
2021/09/25 03:32:12;;;;;;;;;;;9.50;99.90;;;;;;4997593;28;20016;-73
2021/09/25 03:34:44;;;;;;;;;;;9.50;99.90;;;;;;5013696;28;20016;-73
2021/09/25 03:37:10;;;;;;;;;;;9.50;99.90;;;;;;5013540;28;19925;-73
2021/09/25 03:39:42;;;;;;;;;;;9.50;99.90;;;;;;4997182;28;19987;-73
2021/09/25 03:42:09;;;;;;;;;;;9.40;99.90;;;;;;5013698;28;19936;-72
2021/09/25 03:44:40;;;;;;;;;;;9.40;99.90;;;;;;5013307;28;20012;-73
2021/09/25 03:47:12;;;;;;;;;;;9.40;99.90;;;;;;5013907;28;19925;-73
2021/09/25 03:49:44;;;;;;;;;;;9.40;99.90;;;;;;5014387;28;20012;-73
2021/09/25 03:52:10;;;;;;;;;;;9.40;99.90;;;;;;4997247;28;20024;-73
2021/09/25 03:54:37;;;;;;;;;;;9.40;99.90;;;;;;4997032;28;20392;-72
2021/09/25 03:57:09;;;;;;;;;;;9.40;99.90;;;;;;5013536;28;20480;-73
2021/09/25 03:59:40;;;;;;;;;;;9.40;99.90;;;;;;5014601;28;19951;-73
2021/09/25 04:02:12;;;;;;;;;;;9.40;99.90;;;;;;4997000;28;19930;-73
2021/09/25 04:04:39;;;;;;;;;;;9.30;99.90;;;;;;5014157;28;19971;-73
2021/09/25 04:07:10;;;;;;;;;;;9.30;99.90;;;;;;4997508;28;19926;-73
2021/09/25 04:09:42;;;;;;;;;;;9.30;99.90;;;;;;5013151;28;19925;-73
2021/09/25 04:12:14;;;;;;;;;;;9.30;99.90;;;;;;4996816;28;19925;-73
2021/09/25 04:14:45;;;;;;;;;;;9.30;99.90;;;;;;5013727;28;19925;-73
2021/09/25 04:17:12;;;;;;;;;;;9.20;99.90;;;;;;4996777;28;19925;-73
2021/09/25 04:19:39;;;;;;;;;;;9.20;99.90;;;;;;5012872;28;19961;-73
2021/09/25 04:22:10;;;;;;;;;;;9.20;99.90;;;;;;5013265;28;19926;-73
2021/09/25 04:24:42;;;;;;;;;;;9.20;99.90;;;;;;5013874;28;19964;-73
2021/09/25 04:27:14;;;;;;;;;;;9.10;99.90;;;;;;4995325;28;19926;-74
2021/09/25 04:29:40;;;;;;;;;;;9.10;99.90;;;;;;4996397;28;20388;-73
2021/09/25 04:32:12;;;;;;;;;;;9.10;99.90;;;;;;4996517;28;20402;-74
2021/09/25 04:34:44;;;;;;;;;;;9.10;99.90;;;;;;4980520;28;19925;-73
2021/09/25 04:37:10;;;;;;;;;;;9.10;99.90;;;;;;5012778;28;20021;-74
2021/09/25 04:39:42;;;;;;;;;;;9.10;99.90;;;;;;5013765;28;20019;-72
2021/09/25 04:42:14;;;;;;;;;;;9.10;99.90;;;;;;4996203;28;20038;-73
2021/09/25 04:44:45;;;;;;;;;;;9.00;99.90;;;;;;5012347;28;19988;-73
2021/09/25 04:47:12;;;;;;;;;;;9.00;99.90;;;;;;5012648;28;19926;-73
2021/09/25 04:49:44;;;;;;;;;;;9.00;99.90;;;;;;5013285;28;19968;-73
2021/09/25 04:52:15;;;;;;;;;;;9.00;99.90;;;;;;4996052;28;20049;-73
2021/09/25 04:54:47;;;;;;;;;;;9.00;99.90;;;;;;4992975;28;19961;-72
2021/09/25 04:57:19;;;;;;;;;;;8.90;99.90;;;;;;4989405;28;19964;-73
2021/09/25 04:59:46;;;;;;;;;;;8.90;99.90;;;;;;4975399;28;19932;-74
2021/09/25 05:02:12;;;;;;;;;;;8.90;99.90;;;;;;4954094;28;19965;-73
2021/09/25 05:04:39;;;;;;;;;;;8.90;99.90;;;;;;5002796;28;19944;-72
2021/09/25 05:07:06;;;;;;;;;;;8.80;99.90;;;;;;4976662;28;19926;-73
2021/09/25 05:09:33;;;;;;;;;;;8.80;99.90;;;;;;4991623;28;20297;-73
2021/09/25 05:12:00;;;;;;;;;;;8.80;99.90;;;;;;4977465;28;20377;-73
2021/09/25 05:14:33;;;;;;;;;;;8.80;99.90;;;;;;4970164;28;20096;-74
2021/09/25 05:17:00;;;;;;;;;;;8.80;99.90;;;;;;4993843;28;19984;-73
2021/09/25 05:19:32;;;;;;;;;;;8.80;99.90;;;;;;4996031;28;19925;-74
2021/09/25 05:21:59;;;;;;;;;;;8.80;99.90;;;;;;4995312;28;19929;-72
2021/09/25 05:24:25;;;;;;;;;;;8.80;99.90;;;;;;4994768;28;19926;-74
2021/09/25 05:26:57;;;;;;;;;;;8.80;99.90;;;;;;4979723;28;19972;-74
2021/09/25 05:29:29;;;;;;;;;;;8.80;99.90;;;;;;5012686;28;19933;-73
2021/09/25 05:32:02;;;;;;;;;;;8.80;99.90;;;;;;4995756;28;20008;-74
2021/09/25 05:34:33;;;;;;;;;;;8.80;99.90;;;;;;4994433;28;19925;-74
2021/09/25 05:37:05;;;;;;;;;;;8.80;99.90;;;;;;4979181;28;20016;-74
2021/09/25 05:39:32;;;;;;;;;;;8.80;99.90;;;;;;4994431;28;20020;-74
2021/09/25 05:42:03;;;;;;;;;;;8.90;99.90;;;;;;4970561;28;20090;-73
2021/09/25 05:44:35;;;;;;;;;;;8.90;99.90;;;;;;4990600;28;19969;-74
2021/09/25 05:47:07;;;;;;;;;;;8.90;99.90;;;;;;4991539;28;19925;-74
2021/09/25 05:49:39;;;;;;;;;;;8.90;99.90;;;;;;4991578;28;19965;-73
2021/09/25 05:52:10;;;;;;;;;;;8.90;99.90;;;;;;4973491;28;19968;-73
2021/09/25 05:54:42;;;;;;;;;;;9.00;99.90;;;;;;4974025;28;19964;-73
2021/09/25 05:57:14;;;;;;;;;;;9.00;99.90;;;;;;4974606;28;19932;-73
2021/09/25 05:59:41;;;;;;;;;;;9.00;99.90;;;;;;4967116;28;20021;-73
2021/09/25 06:02:08;;;;;;;;;;;9.00;99.90;;;;;;4975077;28;20420;-73
2021/09/25 06:04:36;;;;;;;;;;;9.00;99.90;;;;;;4974188;28;20392;-73
2021/09/25 06:07:09;;;;;;;;;;;9.00;99.90;;;;;;4974913;28;19976;-73
2021/09/25 06:09:41;;;;;;;;;;;9.00;99.90;;;;;;4974935;28;20284;-73
2021/09/25 06:12:13;;;;;;;;;;;9.10;99.90;;;;;;4974813;28;19981;-73
2021/09/25 06:14:40;;;;;;;;;;;9.10;99.90;;;;;;4970788;28;19964;-73
2021/09/25 06:17:12;;;;;;;;;;;9.10;99.90;;;;;;4982495;28;20013;-73
2021/09/25 06:19:43;;;;;;;;;;;9.10;99.90;;;;;;4971342;28;19926;-73
2021/09/25 06:22:10;;;;;;;;;;;9.10;99.90;;;;;;4977514;28;19960;-73
2021/09/25 06:24:42;;;;;;;;;;;9.10;99.90;;;;;;4973727;28;19937;-73
2021/09/25 06:27:14;;;;;;;;;;;9.10;99.90;;;;;;4990085;28;19926;-73
2021/09/25 06:29:45;;;;;;;;;;;9.10;99.90;;;;;;4973279;28;20328;-73
2021/09/25 06:32:17;;;;;;;;;;;9.20;99.90;;;;;;4991781;28;19930;-73
2021/09/25 06:34:49;;;;;;;;;;;9.30;99.90;;;;;;4974868;28;20332;-73
2021/09/25 06:37:15;;;;;;;;;;;9.30;99.90;;;;;;4991196;28;20017;-73
2021/09/25 06:39:42;;;;;;;;;;;9.40;99.90;;;;;;4973926;28;19968;-73
2021/09/25 06:42:09;;;;;;;;;;;9.50;99.90;;;;;;4957914;28;19926;-73
2021/09/25 06:44:40;;;;;;;;;;;9.50;99.90;;;;;;4973952;28;19937;-73
2021/09/25 06:47:07;;;;;;;;;;;9.60;99.90;;;;;;4974093;28;19961;-73
2021/09/25 06:49:34;;;;;;;;;;;9.70;99.90;;;;;;4973868;28;19926;-74
2021/09/25 06:52:01;;;;;;;;;;;9.70;99.90;;;;;;4973118;28;19969;-73
2021/09/25 06:54:35;;;;;;;;;;;9.80;99.90;;;;;;4983480;28;19981;-74
2021/09/25 06:57:06;;;;;;;;;;;10.10;99.90;;;;;;4988871;28;19933;-73
2021/09/25 06:59:33;;;;;;;;;;;10.40;99.90;;;;;;4984892;28;19977;-75
2021/09/25 07:02:01;;;;;;;;;;;10.80;99.90;;;;;;4986170;28;20391;-73
2021/09/25 07:04:32;;;;;;;;;;;11.10;99.90;;;;;;4977861;28;19929;-73
2021/09/25 07:07:04;;;;;;;;;;;11.40;99.90;;;;;;4984203;28;19934;-73
2021/09/25 07:09:31;;;;;;;;;;;11.60;99.90;;;;;;4989436;28;19957;-73
2021/09/25 07:11:57;;;;;;;;;;;11.70;99.90;;;;;;4977006;28;20438;-73
2021/09/25 07:14:24;;;;;;;;;;;11.80;99.90;;;;;;4979366;28;20024;-73
2021/09/25 07:16:56;;;;;;;;;;;11.90;99.90;;;;;;5002311;28;20016;-75
2021/09/25 07:19:27;;;;;;;;;;;12.00;99.90;;;;;;4968865;28;20024;-75
2021/09/25 07:21:54;;;;;;;;;;;12.20;99.90;;;;;;4982261;28;19930;-73
2021/09/25 07:24:21;;;;;;;;;;;12.20;99.90;;;;;;4983493;28;19972;-74
2021/09/25 07:26:48;;;;;;;;;;;12.30;99.90;;;;;;4984030;28;19932;-73
2021/09/25 07:29:14;;;;;;;;;;;12.30;99.90;;;;;;4981441;28;20065;-73
2021/09/25 07:31:46;;;;;;;;;;;12.40;99.90;;;;;;4980433;28;20411;-74
2021/09/25 07:34:18;;;;;;;;;;;12.40;99.90;;;;;;4997402;28;20059;-73
2021/09/25 07:36:45;;;;;;;;;;;12.40;99.90;;;;;;5014547;28;19925;-73
2021/09/25 07:39:12;;;;;;;;;;;12.50;99.90;;;;;;4974451;28;19933;-74
2021/09/25 07:41:39;;;;;;;;;;;12.60;99.90;;;;;;4992157;28;20392;-73
2021/09/25 07:44:11;;;;;;;;;;;12.60;99.90;;;;;;4987889;28;19926;-73
2021/09/25 07:46:38;;;;;;;;;;;12.70;99.90;;;;;;5005779;28;19949;-75
2021/09/25 07:49:09;;;;;;;;;;;12.80;99.90;;;;;;4994861;28;20024;-73
2021/09/25 07:51:36;;;;;;;;;;;12.80;99.90;;;;;;4994641;28;19969;-73
2021/09/25 07:54:08;;;;;;;;;;;12.80;99.90;;;;;;5005276;28;19929;-74
2021/09/25 07:56:40;;;;;;;;;;;12.90;99.90;;;;;;5006247;28;20340;-73
2021/09/25 07:59:07;;;;;;;;;;;13.00;99.90;;;;;;5001727;28;19930;-74
2021/09/25 08:01:35;;;;;;;;;;;13.10;99.90;;;;;;4986151;28;19998;-74
2021/09/25 08:04:07;;;;;;;;;;;13.20;99.90;;;;;;4994915;28;19973;-74
2021/09/25 08:06:39;;;;;;;;;;;13.30;99.90;;;;;;4998356;28;19925;-74
2021/09/25 08:09:06;;;;;;;;;;;13.30;99.90;;;;;;4974579;28;19998;-73
2021/09/25 08:11:37;;;;;;;;;;;13.40;99.90;;;;;;4983385;28;20419;-73
2021/09/25 08:14:04;;;;;;;;;;;13.50;99.90;;;;;;4980947;28;19929;-73
2021/09/25 08:16:31;;;;;;;;;;;13.50;99.90;;;;;;4997653;28;19926;-73
2021/09/25 08:18:58;;;;;;;;;;;13.60;99.90;;;;;;4974235;28;20449;-73
2021/09/25 08:21:27;;;;;;;;;;;13.70;99.90;;;;;;4997811;28;20341;-72
2021/09/25 08:23:59;;;;;;;;;;;13.80;99.90;;;;;;4997573;28;19972;-73
2021/09/25 08:26:31;;;;;;;;;;;13.90;99.90;;;;;;4993773;28;19932;-73
2021/09/25 08:29:04;;;;;;;;;;;14.00;99.90;;;;;;4975994;28;20292;-72
2021/09/25 08:31:35;;;;;;;;;;;14.10;99.90;;;;;;4975847;28;19934;-71
2021/09/25 08:34:02;;;;;;;;;;;14.20;99.90;;;;;;5001460;28;19971;-72
2021/09/25 08:36:34;;;;;;;;;;;14.30;99.90;;;;;;4986784;28;20414;-72
2021/09/25 08:39:01;;;;;;;;;;;14.50;99.90;;;;;;4977202;28;19987;-74
2021/09/25 08:41:27;;;;;;;;;;;14.60;99.90;;;;;;4981997;28;20020;-72
2021/09/25 08:43:59;;;;;;;;;;;14.70;99.90;;;;;;4994155;28;19926;-73
2021/09/25 08:46:26;;;;;;;;;;;14.80;99.90;;;;;;4981666;28;19976;-73
2021/09/25 08:48:58;;;;;;;;;;;14.90;99.90;;;;;;4991696;28;20389;-72
2021/09/25 08:51:29;;;;;;;;;;;15.10;99.90;;;;;;4980317;28;19926;-73
2021/09/25 08:54:02;;;;;;;;;;;15.20;99.90;;;;;;4982000;28;19933;-72
2021/09/25 08:56:33;;;;;;;;;;;15.30;99.90;;;;;;4977060;28;20040;-73
2021/09/25 08:59:00;;;;;;;;;;;15.50;99.90;;;;;;4975948;28;19980;-73
2021/09/25 09:01:32;;;;;;;;;;;15.60;99.90;;;;;;4976811;28;20032;-73
2021/09/25 09:04:05;;;;;;;;;;;15.70;99.90;;;;;;4975779;28;19926;-73
2021/09/25 09:06:38;;;;;;;;;;;15.90;99.90;;;;;;4975505;28;19926;-73
2021/09/25 09:09:10;;;;;;;;;;;16.00;99.90;;;;;;4971017;28;19932;-73
2021/09/25 09:11:43;;;;;;;;;;;16.20;99.90;;;;;;4969789;28;20016;-73
2021/09/25 09:14:16;;;;;;;;;;;16.30;99.90;;;;;;4986092;28;20013;-73
2021/09/25 09:16:54;;;;;;;;;;;16.40;99.90;;;;;;4979599;28;20040;-73
2021/09/25 09:19:20;;;;;;;;;;;16.50;99.90;;;;;;4988137;28;20024;-73
2021/09/25 09:21:49;;;;;;;;;;;16.70;99.90;;;;;;4976934;28;19932;-72
2021/09/25 09:24:16;;;;;;;;;;;16.80;99.90;;;;;;4971114;28;20005;-73
2021/09/25 09:26:43;;;;;;;;;;;16.90;99.90;;;;;;4995191;28;20028;-73
2021/09/25 09:29:15;;;;;;;;;;;17.00;99.90;;;;;;4992723;28;20459;-73
2021/09/25 09:31:41;;;;;;;;;;;17.10;99.90;;;;;;4985965;28;20266;-73
2021/09/25 09:34:08;;;;;;;;;;;17.30;99.90;;;;;;4973252;28;20021;-73
2021/09/25 09:36:41;;;;;;;;;;;17.40;99.90;;;;;;4979198;28;19930;-73
2021/09/25 09:39:14;;;;;;;;;;;17.50;99.90;;;;;;4993451;28;20012;-73
2021/09/25 09:41:46;;;;;;;;;;;17.60;99.90;;;;;;4975390;28;20013;-73
2021/09/25 09:44:19;;;;;;;;;;;17.80;99.90;;;;;;4977128;28;19930;-72
2021/09/25 09:46:57;;;;;;;;;;;17.90;99.90;;;;;;4992395;28;20285;-72
2021/09/25 09:49:33;;;;;;;;;;;18.10;99.90;;;;;;4994378;28;20376;-73
2021/09/25 09:52:04;;;;;;;;;;;18.20;99.90;;;;;;4994037;28;20017;-73
2021/09/25 09:54:40;;;;;;;;;;;18.30;99.90;;;;;;4992228;28;19929;-72
2021/09/25 09:57:17;;;;;;;;;;;18.40;99.90;;;;;;5011670;28;19931;-72
2021/09/25 09:59:45;;;;;;;;;;;18.60;99.90;;;;;;4994048;28;20348;-72
2021/09/25 10:02:17;;;;;;;;;;;18.60;99.90;;;;;;4995753;28;19948;-72
2021/09/25 10:04:44;;;;;;;;;;;18.70;99.90;;;;;;4993090;28;19984;-73
2021/09/25 10:07:11;;;;;;;;;;;18.80;99.90;;;;;;4976421;28;19930;-72
2021/09/25 10:09:42;;;;;;;;;;;18.80;99.90;;;;;;4975015;28;19979;-72
2021/09/25 10:12:16;;;;;;;;;;;19.00;99.90;;;;;;4974283;28;19925;-72
2021/09/25 10:14:49;;;;;;;;;;;19.00;99.90;;;;;;4967227;28;20488;-73
2021/09/25 10:17:16;;;;;;;;;;;19.20;99.90;;;;;;4974996;28;20488;-72
2021/09/25 10:19:43;;;;;;;;;;;19.30;99.90;;;;;;4973576;28;20032;-73
2021/09/25 10:22:26;;;;;;;;;;;19.40;99.90;;;;;;4975891;28;19948;-72
2021/09/25 10:25:04;;;;;;;;;;;19.50;99.90;;;;;;4975715;28;19926;-73
2021/09/25 10:27:35;;;;;;;;;;;19.60;99.90;;;;;;4979278;28;20036;-73
2021/09/25 10:30:04;;;;;;;;;;;19.70;99.90;;;;;;4979376;28;19926;-73
2021/09/25 10:32:56;;;;;;;;;;;19.80;99.90;;;;;;4976270;28;19926;-72
2021/09/25 10:35:25;;;;;;;;;;;19.90;99.90;;;;;;4977785;28;19976;-72
2021/09/25 10:38:02;;;;;;;;;;;20.20;99.90;;;;;;4978554;28;19972;-72
2021/09/25 10:40:30;;;;;;;;;;;20.30;99.90;;;;;;4978229;28;19926;-72
2021/09/25 10:43:14;;;;;;;;;;;20.40;99.90;;;;;;4979358;28;19932;-72
2021/09/25 10:45:51;;;;;;;;;;;20.50;99.90;;;;;;4955435;28;19925;-72
2021/09/25 10:48:25;;;;;;;;;;;20.70;99.90;;;;;;4977488;28;20024;-73
2021/09/25 10:50:57;;;;;;;;;;;20.80;99.90;;;;;;4995578;28;19926;-73
2021/09/25 10:53:28;;;;;;;;;;;20.80;99.90;;;;;;4995479;28;19926;-73
2021/09/25 10:56:03;;;;;;;;;;;21.00;99.90;;;;;;4977377;28;19930;-72
2021/09/25 10:58:31;;;;;;;;;;;21.00;99.90;;;;;;4962072;28;20024;-72
2021/09/25 11:01:11;;;;;;;;;;;21.10;99.90;;;;;;4994767;28;19932;-73
2021/09/25 11:03:49;;;;;;;;;;;21.20;99.90;;;;;;4979557;28;20012;-73
2021/09/25 11:06:23;;;;;;;;;;;21.30;99.90;;;;;;4995755;28;19969;-72
2021/09/25 11:09:08;;;;;;;;;;;21.40;99.90;;;;;;4975246;28;20025;-72
2021/09/25 11:11:41;;;;;;;;;;;21.50;99.90;;;;;;4977133;28;19926;-73
2021/09/25 11:14:24;;;;;;;;;;;21.50;99.90;;;;;;4977898;28;20037;-73
2021/09/25 11:17:00;;;;;;;;;;;21.60;99.90;;;;;;4971777;28;19936;-73
2021/09/25 11:19:29;;;;;;;;;;;21.60;99.90;;;;;;4961595;28;20372;-72
2021/09/25 11:21:59;;;;;;;;;;;21.70;99.90;;;;;;4994147;28;20403;-73
2021/09/25 11:24:35;;;;;;;;;;;21.80;99.90;;;;;;4961528;28;19933;-73
2021/09/25 11:27:02;;;;;;;;;;;21.90;99.90;;;;;;4977486;28;19953;-73
2021/09/25 11:29:34;;;;;;;;;;;21.90;99.90;;;;;;4976870;28;19926;-72
2021/09/25 11:32:02;;;;;;;;;;;22.00;99.90;;;;;;4994578;28;19932;-72
2021/09/25 11:34:30;;;;;;;;;;;22.10;99.90;;;;;;4976341;28;19987;-73
2021/09/25 11:36:58;;;;;;;;;;;22.20;99.90;;;;;;4976469;28;19983;-72
2021/09/25 11:39:36;;;;;;;;;;;22.30;99.90;;;;;;4977115;28;20286;-72
2021/09/25 11:42:10;;;;;;;;;;;22.40;99.90;;;;;;4977547;28;20028;-73
2021/09/25 11:44:44;;;;;;;;;;;22.50;99.90;;;;;;4976821;28;20295;-72
2021/09/25 11:47:19;;;;;;;;;;;22.50;99.90;;;;;;4977182;28;19972;-73
2021/09/25 11:49:47;;;;;;;;;;;22.50;99.90;;;;;;4970046;28;20411;-72
2021/09/25 11:52:14;;;;;;;;;;;22.60;99.90;;;;;;4976920;28;19976;-73
2021/09/25 11:54:41;;;;;;;;;;;22.70;99.90;;;;;;4968552;28;19984;-73
2021/09/25 11:57:19;;;;;;;;;;;22.80;99.90;;;;;;4976844;28;20416;-73
2021/09/25 11:59:52;;;;;;;;;;;22.80;99.90;;;;;;4977647;28;20028;-72
2021/09/25 12:02:37;;;;;;;;;;;22.90;99.90;;;;;;4977431;28;20410;-73
2021/09/25 12:05:22;;;;;;;;;;;23.00;99.90;;;;;;4977163;28;19925;-72
2021/09/25 12:07:54;;;;;;;;;;;23.00;99.90;;;;;;4955191;28;19930;-73
2021/09/25 12:10:30;;;;;;;;;;;23.10;99.90;;;;;;4961104;28;19930;-72
2021/09/25 12:13:07;;;;;;;;;;;23.10;99.90;;;;;;4977148;28;19926;-72
2021/09/25 12:15:35;;;;;;;;;;;23.20;99.90;;;;;;4975991;28;19926;-73
2021/09/25 12:18:09;;;;;;;;;;;23.20;99.90;;;;;;4977181;28;19947;-73
2021/09/25 12:20:35;;;;;;;;;;;23.20;99.90;;;;;;4993862;28;20028;-73
2021/09/25 12:23:04;;;;;;;;;;;23.20;99.90;;;;;;4975993;28;19932;-72
2021/09/25 12:25:32;;;;;;;;;;;23.20;99.90;;;;;;4975781;28;19930;-73
2021/09/25 12:27:59;;;;;;;;;;;23.30;99.90;;;;;;4975764;28;19926;-73
2021/09/25 12:30:31;;;;;;;;;;;23.40;99.90;;;;;;4976419;28;19936;-73
2021/09/25 12:33:03;;;;;;;;;;;23.40;99.90;;;;;;4976238;28;19926;-73
2021/09/25 12:35:34;;;;;;;;;;;23.50;99.90;;;;;;4976842;28;20376;-72
2021/09/25 12:38:12;;;;;;;;;;;23.60;99.90;;;;;;4976376;28;19965;-73
2021/09/25 12:40:44;;;;;;;;;;;23.60;99.90;;;;;;4977299;28;19964;-73
2021/09/25 12:43:11;;;;;;;;;;;23.70;99.90;;;;;;4992583;28;20024;-73
2021/09/25 12:45:43;;;;;;;;;;;23.80;99.90;;;;;;4960519;28;19926;-73
2021/09/25 12:48:15;;;;;;;;;;;23.90;99.90;;;;;;4969154;28;20045;-73
2021/09/25 12:50:48;;;;;;;;;;;23.90;99.90;;;;;;4986103;28;19964;-73
2021/09/25 12:53:19;;;;;;;;;;;23.90;99.90;;;;;;4973345;28;19926;-73
2021/09/25 12:55:51;;;;;;;;;;;23.90;99.90;;;;;;4989857;28;20024;-73
2021/09/25 12:58:18;;;;;;;;;;;23.80;99.90;;;;;;4992657;28;19981;-73
2021/09/25 13:00:44;;;;;;;;;;;23.80;99.90;;;;;;4983443;28;20017;-73
2021/09/25 13:03:12;;;;;;;;;;;23.80;99.90;;;;;;4978462;28;20459;-73
2021/09/25 13:05:43;;;;;;;;;;;23.80;99.90;;;;;;4984791;28;20021;-73
2021/09/25 13:08:15;;;;;;;;;;;23.90;99.90;;;;;;4972672;28;19926;-73
2021/09/25 13:10:48;;;;;;;;;;;23.90;99.90;;;;;;4980614;28;20020;-73
2021/09/25 13:13:22;;;;;;;;;;;23.90;99.90;;;;;;4980693;28;20359;-73
2021/09/25 13:15:49;;;;;;;;;;;24.00;99.90;;;;;;4972999;28;19926;-73
2021/09/25 13:18:21;;;;;;;;;;;24.00;99.90;;;;;;5002266;28;19929;-73
2021/09/25 13:20:54;;;;;;;;;;;24.00;99.90;;;;;;4970918;28;20013;-73
2021/09/25 13:23:28;;;;;;;;;;;24.00;99.90;;;;;;4981503;28;19925;-73
2021/09/25 13:25:59;;;;;;;;;;;24.10;99.90;;;;;;4973869;28;19925;-73
2021/09/25 13:28:26;;;;;;;;;;;24.10;99.90;;;;;;4997005;28;19996;-72
2021/09/25 13:30:58;;;;;;;;;;;24.20;99.80;;;;;;4991475;28;20001;-73
2021/09/25 13:33:30;;;;;;;;;;;24.20;99.90;;;;;;4991958;28;20024;-73
2021/09/25 13:35:58;;;;;;;;;;;24.30;99.90;;;;;;4984792;28;20384;-73
2021/09/25 13:38:25;;;;;;;;;;;24.30;99.20;;;;;;4980789;28;19972;-73
2021/09/25 13:40:52;;;;;;;;;;;24.30;98.80;;;;;;4975528;28;19973;-73
2021/09/25 13:43:19;;;;;;;;;;;24.30;98.70;;;;;;4972537;28;19926;-73
2021/09/25 13:45:51;;;;;;;;;;;24.30;98.30;;;;;;4973720;28;20475;-73
2021/09/25 13:48:23;;;;;;;;;;;24.30;99.20;;;;;;4973684;28;19925;-73
2021/09/25 13:50:55;;;;;;;;;;;24.40;98.70;;;;;;4958833;28;19925;-73
2021/09/25 13:53:27;;;;;;;;;;;24.40;99.70;;;;;;4975832;28;20020;-72
2021/09/25 13:55:58;;;;;;;;;;;24.50;98.30;;;;;;4981621;28;19937;-72
2021/09/25 13:58:30;;;;;;;;;;;24.50;98.60;;;;;;4999204;28;19947;-72
2021/09/25 14:00:59;;;;;;;;;;;24.50;98.20;;;;;;5001165;28;19934;-72
2021/09/25 14:03:30;;;;;;;;;;;24.60;98.20;;;;;;4947843;28;20016;-72
2021/09/25 14:06:02;;;;;;;;;;;24.70;99.10;;;;;;4985927;28;19929;-73
2021/09/25 14:08:35;;;;;;;;;;;24.80;99.10;;;;;;4992920;28;19930;-73
2021/09/25 14:11:10;;;;;;;;;;;24.80;99.50;;;;;;4998295;28;19993;-73
2021/09/25 14:13:42;;;;;;;;;;;24.90;99.10;;;;;;4993059;28;20028;-73
2021/09/25 14:16:13;;;;;;;;;;;25.00;98.90;;;;;;4985303;28;20379;-73
2021/09/25 14:18:48;;;;;;;;;;;25.10;98.60;;;;;;4955641;28;19932;-73
2021/09/25 14:21:16;;;;;;;;;;;25.10;97.90;;;;;;4977861;28;19926;-73
2021/09/25 14:23:43;;;;;;;;;;;25.20;98.00;;;;;;4963644;28;20345;-73
2021/09/25 14:26:10;;;;;;;;;;;25.20;98.00;;;;;;4967947;28;19953;-73
2021/09/25 14:28:42;;;;;;;;;;;25.30;98.90;;;;;;4976823;28;20395;-73
2021/09/25 14:31:14;;;;;;;;;;;25.30;98.50;;;;;;4966846;28;20557;-73
2021/09/25 14:33:46;;;;;;;;;;;25.40;98.40;;;;;;5003719;28;19971;-73
2021/09/25 14:36:12;;;;;;;;;;;25.40;99.00;;;;;;5010978;28;20020;-73
2021/09/25 14:38:44;;;;;;;;;;;25.50;97.60;;;;;;5010581;28;19965;-73
2021/09/25 14:41:11;;;;;;;;;;;25.50;99.10;;;;;;5010039;28;20035;-73